sensor_id;sensor_type;location;lat;lon;timestamp;pressure;altitude;pressure_sealevel;temperature;humidity
5609;BME280;2826;51.354;9.588;2023-07-13T00:02:14;98030.81;;;21.57;52.73
5609;BME280;2826;51.354;9.588;2023-07-13T00:04:41;98030.38;;;21.51;53.90
5609;BME280;2826;51.354;9.588;2023-07-13T00:07:08;98039.00;;;21.53;54.91
5609;BME280;2826;51.354;9.588;2023-07-13T00:09:35;98035.63;;;21.51;56.00
5609;BME280;2826;51.354;9.588;2023-07-13T00:12:03;98034.81;;;21.51;56.50
5609;BME280;2826;51.354;9.588;2023-07-13T00:14:31;98032.31;;;21.49;56.56
5609;BME280;2826;51.354;9.588;2023-07-13T00:16:57;98042.03;;;21.49;56.92
5609;BME280;2826;51.354;9.588;2023-07-13T00:19:25;98043.84;;;21.48;57.31
5609;BME280;2826;51.354;9.588;2023-07-13T00:21:52;98047.16;;;21.50;55.38
5609;BME280;2826;51.354;9.588;2023-07-13T00:24:21;98040.72;;;21.33;54.96
5609;BME280;2826;51.354;9.588;2023-07-13T00:26:49;98048.03;;;21.20;55.03
5609;BME280;2826;51.354;9.588;2023-07-13T00:29:17;98042.56;;;21.11;55.35
5609;BME280;2826;51.354;9.588;2023-07-13T00:31:44;98037.69;;;21.07;55.63
5609;BME280;2826;51.354;9.588;2023-07-13T00:34:11;98034.78;;;21.10;54.94
5609;BME280;2826;51.354;9.588;2023-07-13T00:36:38;98029.22;;;21.03;54.87
5609;BME280;2826;51.354;9.588;2023-07-13T00:39:05;98046.78;;;20.93;55.71
5609;BME280;2826;51.354;9.588;2023-07-13T00:41:31;98044.16;;;20.93;55.09
5609;BME280;2826;51.354;9.588;2023-07-13T00:43:59;98049.53;;;20.91;55.13
5609;BME280;2826;51.354;9.588;2023-07-13T00:46:30;98042.50;;;20.92;55.04
5609;BME280;2826;51.354;9.588;2023-07-13T00:48:59;98054.09;;;20.89;54.94
5609;BME280;2826;51.354;9.588;2023-07-13T00:51:31;98037.34;;;20.90;55.58
5609;BME280;2826;51.354;9.588;2023-07-13T00:54:00;98045.38;;;20.88;56.23
5609;BME280;2826;51.354;9.588;2023-07-13T00:56:30;98041.06;;;20.87;56.32
5609;BME280;2826;51.354;9.588;2023-07-13T00:58:59;98044.78;;;20.85;56.87
5609;BME280;2826;51.354;9.588;2023-07-13T01:01:28;98041.06;;;20.87;56.36
5609;BME280;2826;51.354;9.588;2023-07-13T01:03:55;98045.72;;;20.84;56.37
5609;BME280;2826;51.354;9.588;2023-07-13T01:06:22;98045.03;;;20.82;56.65
5609;BME280;2826;51.354;9.588;2023-07-13T01:08:49;98035.59;;;20.79;55.43
5609;BME280;2826;51.354;9.588;2023-07-13T01:11:18;98039.16;;;20.78;55.60
5609;BME280;2826;51.354;9.588;2023-07-13T01:13:45;98044.44;;;20.78;55.52
5609;BME280;2826;51.354;9.588;2023-07-13T01:16:15;98020.81;;;20.67;55.42
5609;BME280;2826;51.354;9.588;2023-07-13T01:18:47;98039.75;;;20.82;55.00
5609;BME280;2826;51.354;9.588;2023-07-13T01:21:16;98045.16;;;20.80;54.88
5609;BME280;2826;51.354;9.588;2023-07-13T01:23:44;98052.34;;;20.78;55.50
5609;BME280;2826;51.354;9.588;2023-07-13T01:26:11;98048.03;;;20.77;55.53
5609;BME280;2826;51.354;9.588;2023-07-13T01:28:37;98049.97;;;20.75;55.39
5609;BME280;2826;51.354;9.588;2023-07-13T01:31:07;98056.47;;;20.71;55.49
5609;BME280;2826;51.354;9.588;2023-07-13T01:33:36;98057.13;;;20.63;56.12
5609;BME280;2826;51.354;9.588;2023-07-13T01:36:03;98033.56;;;20.50;55.92
5609;BME280;2826;51.354;9.588;2023-07-13T01:38:34;98049.34;;;20.61;55.92
5609;BME280;2826;51.354;9.588;2023-07-13T01:41:02;98044.06;;;20.61;56.16
5609;BME280;2826;51.354;9.588;2023-07-13T01:43:29;98054.00;;;20.58;56.96
5609;BME280;2826;51.354;9.588;2023-07-13T01:45:56;98046.94;;;20.58;56.93
5609;BME280;2826;51.354;9.588;2023-07-13T01:48:22;98048.72;;;20.58;57.62
5609;BME280;2826;51.354;9.588;2023-07-13T01:50:49;98046.09;;;20.58;58.18
5609;BME280;2826;51.354;9.588;2023-07-13T01:53:16;98043.34;;;20.59;57.56
5609;BME280;2826;51.354;9.588;2023-07-13T01:55:44;98043.78;;;20.65;57.30
5609;BME280;2826;51.354;9.588;2023-07-13T01:58:11;98046.41;;;20.65;56.66
5609;BME280;2826;51.354;9.588;2023-07-13T02:00:38;98053.63;;;20.62;56.69
5609;BME280;2826;51.354;9.588;2023-07-13T02:03:05;98051.13;;;20.61;56.54
5609;BME280;2826;51.354;9.588;2023-07-13T02:05:31;98049.47;;;20.60;56.75
5609;BME280;2826;51.354;9.588;2023-07-13T02:07:58;98041.09;;;20.55;56.69
5609;BME280;2826;51.354;9.588;2023-07-13T02:10:24;98042.91;;;20.54;56.82
5609;BME280;2826;51.354;9.588;2023-07-13T02:12:52;98058.63;;;20.44;57.03
5609;BME280;2826;51.354;9.588;2023-07-13T02:15:19;98043.66;;;20.45;57.28
5609;BME280;2826;51.354;9.588;2023-07-13T02:17:46;98052.66;;;20.42;57.59
5609;BME280;2826;51.354;9.588;2023-07-13T02:20:12;98045.97;;;20.38;57.87
5609;BME280;2826;51.354;9.588;2023-07-13T02:22:39;98039.41;;;20.32;58.50
5609;BME280;2826;51.354;9.588;2023-07-13T02:25:06;98043.97;;;20.30;58.52
5609;BME280;2826;51.354;9.588;2023-07-13T02:27:33;98036.31;;;20.27;58.82
5609;BME280;2826;51.354;9.588;2023-07-13T02:30:01;98029.50;;;20.24;58.99
5609;BME280;2826;51.354;9.588;2023-07-13T02:32:28;98031.56;;;20.21;58.81
5609;BME280;2826;51.354;9.588;2023-07-13T02:34:55;98022.50;;;20.14;58.77
5609;BME280;2826;51.354;9.588;2023-07-13T02:37:21;98022.03;;;20.08;58.66
5609;BME280;2826;51.354;9.588;2023-07-13T02:39:48;98024.78;;;20.07;59.25
5609;BME280;2826;51.354;9.588;2023-07-13T02:42:14;98013.22;;;19.98;59.29
5609;BME280;2826;51.354;9.588;2023-07-13T02:44:43;98014.66;;;19.91;59.77
5609;BME280;2826;51.354;9.588;2023-07-13T02:47:11;98017.91;;;19.83;59.81
5609;BME280;2826;51.354;9.588;2023-07-13T02:49:38;98010.38;;;19.78;59.94
5609;BME280;2826;51.354;9.588;2023-07-13T02:52:05;98015.41;;;19.70;59.92
5609;BME280;2826;51.354;9.588;2023-07-13T02:54:32;98020.19;;;19.65;60.11
5609;BME280;2826;51.354;9.588;2023-07-13T02:56:59;98024.75;;;19.63;60.10
5609;BME280;2826;51.354;9.588;2023-07-13T02:59:25;98019.03;;;19.57;60.27
5609;BME280;2826;51.354;9.588;2023-07-13T03:01:52;98022.13;;;19.51;61.11
5609;BME280;2826;51.354;9.588;2023-07-13T03:04:20;98014.84;;;19.43;61.17
5609;BME280;2826;51.354;9.588;2023-07-13T03:06:47;98024.66;;;19.41;61.18
5609;BME280;2826;51.354;9.588;2023-07-13T03:09:14;98023.81;;;19.41;61.48
5609;BME280;2826;51.354;9.588;2023-07-13T03:11:46;98029.31;;;19.38;61.47
5609;BME280;2826;51.354;9.588;2023-07-13T03:14:33;98035.66;;;19.35;61.96
5609;BME280;2826;51.354;9.588;2023-07-13T03:17:01;98035.88;;;19.32;61.79
5609;BME280;2826;51.354;9.588;2023-07-13T03:19:32;98036.16;;;19.29;62.02
5609;BME280;2826;51.354;9.588;2023-07-13T03:22:02;98038.88;;;19.27;62.11
5609;BME280;2826;51.354;9.588;2023-07-13T03:24:29;98038.88;;;19.27;62.50
5609;BME280;2826;51.354;9.588;2023-07-13T03:26:57;98040.78;;;19.25;62.57
5609;BME280;2826;51.354;9.588;2023-07-13T03:29:23;98049.38;;;19.16;62.54
5609;BME280;2826;51.354;9.588;2023-07-13T03:31:51;98050.09;;;19.06;63.21
5609;BME280;2826;51.354;9.588;2023-07-13T03:34:18;98057.00;;;18.96;63.94
5609;BME280;2826;51.354;9.588;2023-07-13T03:36:46;98060.81;;;18.92;64.11
5609;BME280;2826;51.354;9.588;2023-07-13T03:39:12;98059.50;;;18.98;63.91
5609;BME280;2826;51.354;9.588;2023-07-13T03:41:45;98057.00;;;18.96;63.76
5609;BME280;2826;51.354;9.588;2023-07-13T03:44:12;98057.09;;;18.94;64.15
5609;BME280;2826;51.354;9.588;2023-07-13T03:46:38;98064.13;;;18.94;64.02
5609;BME280;2826;51.354;9.588;2023-07-13T03:49:05;98058.06;;;18.93;64.21
5609;BME280;2826;51.354;9.588;2023-07-13T03:51:32;98070.34;;;18.93;64.62
5609;BME280;2826;51.354;9.588;2023-07-13T03:54:01;98068.47;;;18.95;64.63
5609;BME280;2826;51.354;9.588;2023-07-13T03:56:28;98079.41;;;18.89;65.18
5609;BME280;2826;51.354;9.588;2023-07-13T03:58:56;98078.09;;;18.83;65.02
5609;BME280;2826;51.354;9.588;2023-07-13T04:01:23;98082.75;;;18.79;64.91
5609;BME280;2826;51.354;9.588;2023-07-13T04:03:51;98092.06;;;18.84;65.09
5609;BME280;2826;51.354;9.588;2023-07-13T04:06:25;98078.09;;;18.83;64.84
5609;BME280;2826;51.354;9.588;2023-07-13T04:08:54;98091.47;;;18.80;65.45
5609;BME280;2826;51.354;9.588;2023-07-13T04:11:24;98078.56;;;18.77;64.87
5609;BME280;2826;51.354;9.588;2023-07-13T04:13:52;98086.59;;;18.87;64.71
5609;BME280;2826;51.354;9.588;2023-07-13T04:16:19;98091.84;;;18.87;64.68
5609;BME280;2826;51.354;9.588;2023-07-13T04:18:47;98097.22;;;18.85;64.86
5609;BME280;2826;51.354;9.588;2023-07-13T04:21:14;98093.63;;;18.86;64.63
5609;BME280;2826;51.354;9.588;2023-07-13T04:23:41;98097.59;;;18.92;64.39
5609;BME280;2826;51.354;9.588;2023-07-13T04:26:08;98095.22;;;19.00;63.89
5609;BME280;2826;51.354;9.588;2023-07-13T04:28:36;98105.00;;;18.98;64.24
5609;BME280;2826;51.354;9.588;2023-07-13T04:31:03;98104.88;;;19.00;63.44
5609;BME280;2826;51.354;9.588;2023-07-13T04:33:30;98105.28;;;19.06;63.88
5609;BME280;2826;51.354;9.588;2023-07-13T04:35:56;98111.13;;;19.10;63.39
5609;BME280;2826;51.354;9.588;2023-07-13T04:38:27;98106.03;;;19.09;63.39
5609;BME280;2826;51.354;9.588;2023-07-13T04:40:55;98111.88;;;19.12;63.47
5609;BME280;2826;51.354;9.588;2023-07-13T04:43:22;98111.88;;;19.12;63.61
5609;BME280;2826;51.354;9.588;2023-07-13T04:45:51;98113.78;;;19.22;63.32
5609;BME280;2826;51.354;9.588;2023-07-13T04:48:18;98112.25;;;19.19;63.52
5609;BME280;2826;51.354;9.588;2023-07-13T04:50:45;98111.06;;;19.23;63.17
5609;BME280;2826;51.354;9.588;2023-07-13T04:53:12;98114.75;;;19.21;63.28
5609;BME280;2826;51.354;9.588;2023-07-13T04:55:39;98118.09;;;19.23;63.26
5609;BME280;2826;51.354;9.588;2023-07-13T04:58:06;98119.75;;;19.24;63.63
5609;BME280;2826;51.354;9.588;2023-07-13T05:00:32;98122.53;;;19.22;63.77
5609;BME280;2826;51.354;9.588;2023-07-13T05:03:03;98101.25;;;19.14;63.59
5609;BME280;2826;51.354;9.588;2023-07-13T05:05:29;98113.69;;;19.23;63.62
5609;BME280;2826;51.354;9.588;2023-07-13T05:07:56;98122.03;;;19.28;63.30
5609;BME280;2826;51.354;9.588;2023-07-13T05:10:23;98120.00;;;19.32;62.80
5609;BME280;2826;51.354;9.588;2023-07-13T05:12:50;98122.63;;;19.32;62.84
5609;BME280;2826;51.354;9.588;2023-07-13T05:15:17;98123.00;;;19.39;63.40
5609;BME280;2826;51.354;9.588;2023-07-13T05:17:46;98114.88;;;19.42;62.94
5609;BME280;2826;51.354;9.588;2023-07-13T05:20:15;98123.72;;;19.52;62.69
5609;BME280;2826;51.354;9.588;2023-07-13T05:22:42;98120.63;;;19.58;62.40
5609;BME280;2826;51.354;9.588;2023-07-13T05:25:09;98122.53;;;19.68;62.10
5609;BME280;2826;51.354;9.588;2023-07-13T05:27:36;98120.38;;;19.73;61.62
5609;BME280;2826;51.354;9.588;2023-07-13T05:30:03;98114.63;;;19.79;61.59
5609;BME280;2826;51.354;9.588;2023-07-13T05:32:30;98116.44;;;19.79;60.94
5609;BME280;2826;51.354;9.588;2023-07-13T05:34:57;98120.41;;;19.84;61.04
5609;BME280;2826;51.354;9.588;2023-07-13T05:37:25;98111.66;;;19.95;60.40
5609;BME280;2826;51.354;9.588;2023-07-13T05:39:51;98124.81;;;19.95;60.12
5609;BME280;2826;51.354;9.588;2023-07-13T05:42:18;98124.91;;;20.05;59.12
5609;BME280;2826;51.354;9.588;2023-07-13T05:44:44;98127.19;;;20.10;59.31
5609;BME280;2826;51.354;9.588;2023-07-13T05:47:11;98128.50;;;20.16;58.55
5609;BME280;2826;51.354;9.588;2023-07-13T05:49:39;98128.97;;;20.21;58.45
5609;BME280;2826;51.354;9.588;2023-07-13T05:52:06;98126.56;;;20.29;57.68
5609;BME280;2826;51.354;9.588;2023-07-13T05:54:35;98113.50;;;20.28;58.10
5609;BME280;2826;51.354;9.588;2023-07-13T05:57:02;98135.13;;;20.43;57.12
5609;BME280;2826;51.354;9.588;2023-07-13T05:59:29;98135.59;;;20.48;56.24
5609;BME280;2826;51.354;9.588;2023-07-13T06:01:55;98138.44;;;20.56;55.47
5609;BME280;2826;51.354;9.588;2023-07-13T06:04:21;98139.38;;;20.55;55.28
5609;BME280;2826;51.354;9.588;2023-07-13T06:06:48;98139.13;;;20.58;54.78
5609;BME280;2826;51.354;9.588;2023-07-13T06:09:14;98135.38;;;20.72;55.07
5609;BME280;2826;51.354;9.588;2023-07-13T06:11:42;98136.81;;;20.76;54.58
5609;BME280;2826;51.354;9.588;2023-07-13T06:14:09;98126.59;;;20.83;53.92
5609;BME280;2826;51.354;9.588;2023-07-13T06:16:36;98140.38;;;20.87;53.14
5609;BME280;2826;51.354;9.588;2023-07-13T06:19:02;98144.03;;;20.96;52.67
5609;BME280;2826;51.354;9.588;2023-07-13T06:21:29;98141.13;;;20.99;51.32
5609;BME280;2826;51.354;9.588;2023-07-13T06:23:55;98141.22;;;21.09;50.56
5609;BME280;2826;51.354;9.588;2023-07-13T06:26:22;98114.78;;;20.99;49.94
5609;BME280;2826;51.354;9.588;2023-07-13T06:28:50;98145.00;;;21.16;49.87
5609;BME280;2826;51.354;9.588;2023-07-13T06:31:17;98149.34;;;21.27;50.34
5609;BME280;2826;51.354;9.588;2023-07-13T06:33:43;98150.00;;;21.40;50.03
5609;BME280;2826;51.354;9.588;2023-07-13T06:36:10;98154.75;;;21.47;48.95
5609;BME280;2826;51.354;9.588;2023-07-13T06:38:37;98159.31;;;21.45;49.73
5609;BME280;2826;51.354;9.588;2023-07-13T06:41:05;98159.00;;;21.59;49.94
5609;BME280;2826;51.354;9.588;2023-07-13T06:43:31;98151.94;;;21.70;50.12
5609;BME280;2826;51.354;9.588;2023-07-13T06:45:59;98147.69;;;21.78;49.65
5609;BME280;2826;51.354;9.588;2023-07-13T06:48:26;98154.38;;;21.83;48.63
5609;BME280;2826;51.354;9.588;2023-07-13T06:50:53;98143.44;;;21.87;48.27
5609;BME280;2826;51.354;9.588;2023-07-13T06:53:20;98143.59;;;21.96;48.75
5609;BME280;2826;51.354;9.588;2023-07-13T06:55:47;98150.28;;;22.00;48.47
5609;BME280;2826;51.354;9.588;2023-07-13T06:58:16;98136.91;;;21.91;48.93
5609;BME280;2826;51.354;9.588;2023-07-13T07:00:43;98156.84;;;22.15;48.99
5609;BME280;2826;51.354;9.588;2023-07-13T07:03:11;98151.97;;;22.21;47.92
5609;BME280;2826;51.354;9.588;2023-07-13T07:05:37;98146.31;;;22.35;47.91
5609;BME280;2826;51.354;9.588;2023-07-13T07:08:04;98142.72;;;22.46;46.95
5609;BME280;2826;51.354;9.588;2023-07-13T07:10:31;98147.56;;;22.51;46.73
5609;BME280;2826;51.354;9.588;2023-07-13T07:12:58;98146.09;;;22.58;46.88
5609;BME280;2826;51.354;9.588;2023-07-13T07:15:25;98148.03;;;22.76;46.52
5609;BME280;2826;51.354;9.588;2023-07-13T07:17:52;98143.44;;;22.88;46.44
5609;BME280;2826;51.354;9.588;2023-07-13T07:20:20;98148.44;;;23.10;46.69
5609;BME280;2826;51.354;9.588;2023-07-13T07:22:47;98148.25;;;23.22;45.13
5609;BME280;2826;51.354;9.588;2023-07-13T07:25:14;98151.31;;;23.27;45.12
5609;BME280;2826;51.354;9.588;2023-07-13T07:27:40;98149.38;;;23.39;44.24
5609;BME280;2826;51.354;9.588;2023-07-13T07:30:08;98146.13;;;23.45;44.99
5609;BME280;2826;51.354;9.588;2023-07-13T07:32:34;98151.69;;;23.52;44.31
5609;BME280;2826;51.354;9.588;2023-07-13T07:35:01;98156.25;;;23.60;43.60
5609;BME280;2826;51.354;9.588;2023-07-13T07:37:29;98152.75;;;23.69;43.79
5609;BME280;2826;51.354;9.588;2023-07-13T07:39:55;98154.22;;;23.82;43.85
5609;BME280;2826;51.354;9.588;2023-07-13T07:42:22;98150.53;;;23.93;42.95
5609;BME280;2826;51.354;9.588;2023-07-13T07:44:49;98149.72;;;23.92;42.87
5609;BME280;2826;51.354;9.588;2023-07-13T07:47:15;98155.03;;;23.92;42.64
5609;BME280;2826;51.354;9.588;2023-07-13T07:49:42;98158.44;;;24.02;41.95
5609;BME280;2826;51.354;9.588;2023-07-13T07:52:09;98158.06;;;24.25;41.43
5609;BME280;2826;51.354;9.588;2023-07-13T07:54:37;98149.69;;;24.30;40.86
5609;BME280;2826;51.354;9.588;2023-07-13T07:57:03;98161.66;;;24.34;41.20
5609;BME280;2826;51.354;9.588;2023-07-13T07:59:30;98162.47;;;24.35;41.50
5609;BME280;2826;51.354;9.588;2023-07-13T08:01:57;98157.25;;;24.43;41.11
5609;BME280;2826;51.354;9.588;2023-07-13T08:04:23;98151.13;;;24.61;40.67
5609;BME280;2826;51.354;9.588;2023-07-13T08:06:50;98152.78;;;24.62;40.15
5609;BME280;2826;51.354;9.588;2023-07-13T08:09:17;98165.97;;;24.53;40.35
5609;BME280;2826;51.354;9.588;2023-07-13T08:11:45;98171.25;;;24.35;39.72
5609;BME280;2826;51.354;9.588;2023-07-13T08:14:11;98160.25;;;24.02;40.80
5609;BME280;2826;51.354;9.588;2023-07-13T08:16:38;98165.69;;;23.72;41.55
5609;BME280;2826;51.354;9.588;2023-07-13T08:19:04;98163.34;;;23.69;41.20
5609;BME280;2826;51.354;9.588;2023-07-13T08:21:31;98120.53;;;23.46;42.30
5609;BME280;2826;51.354;9.588;2023-07-13T08:23:58;98167.88;;;23.87;41.61
5609;BME280;2826;51.354;9.588;2023-07-13T08:26:24;98167.66;;;23.98;42.06
5609;BME280;2826;51.354;9.588;2023-07-13T08:28:52;98176.91;;;24.22;41.31
5609;BME280;2826;51.354;9.588;2023-07-13T08:31:19;98168.41;;;24.19;41.36
5609;BME280;2826;51.354;9.588;2023-07-13T08:33:45;98158.75;;;24.27;40.79
5609;BME280;2826;51.354;9.588;2023-07-13T08:36:12;98162.13;;;24.48;41.13
5609;BME280;2826;51.354;9.588;2023-07-13T08:38:38;98158.78;;;24.46;42.09
5609;BME280;2826;51.354;9.588;2023-07-13T08:41:12;98165.06;;;24.63;41.04
5609;BME280;2826;51.354;9.588;2023-07-13T08:43:39;98167.28;;;24.86;40.90
5609;BME280;2826;51.354;9.588;2023-07-13T08:46:13;98156.94;;;25.01;39.91
5609;BME280;2826;51.354;9.588;2023-07-13T08:48:44;98163.13;;;25.28;39.86
5609;BME280;2826;51.354;9.588;2023-07-13T08:51:21;98171.19;;;25.18;40.28
5609;BME280;2826;51.354;9.588;2023-07-13T08:53:53;98169.91;;;25.04;40.19
5609;BME280;2826;51.354;9.588;2023-07-13T08:56:23;98171.28;;;25.08;40.70
5609;BME280;2826;51.354;9.588;2023-07-13T08:58:56;98169.91;;;25.04;39.93
5609;BME280;2826;51.354;9.588;2023-07-13T09:01:46;98174.94;;;24.89;39.85
5609;BME280;2826;51.354;9.588;2023-07-13T09:04:16;98159.00;;;24.71;39.52
5609;BME280;2826;51.354;9.588;2023-07-13T09:06:55;98171.34;;;24.62;40.98
5609;BME280;2826;51.354;9.588;2023-07-13T09:09:34;98152.41;;;24.57;40.61
5609;BME280;2826;51.354;9.588;2023-07-13T09:12:13;98168.34;;;24.75;40.43
5609;BME280;2826;51.354;9.588;2023-07-13T09:14:43;98162.00;;;24.86;40.65
5609;BME280;2826;51.354;9.588;2023-07-13T09:17:17;98177.06;;;25.03;41.02
5609;BME280;2826;51.354;9.588;2023-07-13T09:19:58;98177.06;;;25.03;40.12
5609;BME280;2826;51.354;9.588;2023-07-13T09:22:28;98168.75;;;25.07;40.06
5609;BME280;2826;51.354;9.588;2023-07-13T09:25:02;98171.53;;;25.23;39.37
5609;BME280;2826;51.354;9.588;2023-07-13T09:27:36;98175.72;;;25.26;38.68
5609;BME280;2826;51.354;9.588;2023-07-13T09:30:20;98167.84;;;25.16;39.02
5609;BME280;2826;51.354;9.588;2023-07-13T09:32:52;98159.75;;;25.44;39.30
5609;BME280;2826;51.354;9.588;2023-07-13T09:35:21;98167.25;;;25.83;36.57
5609;BME280;2826;51.354;9.588;2023-07-13T09:37:49;98165.19;;;26.47;35.90
5609;BME280;2826;51.354;9.588;2023-07-13T09:40:22;98157.88;;;26.91;34.13
5609;BME280;2826;51.354;9.588;2023-07-13T09:42:51;98159.56;;;27.25;34.20
5609;BME280;2826;51.354;9.588;2023-07-13T09:45:27;98154.84;;;27.52;33.34
5609;BME280;2826;51.354;9.588;2023-07-13T09:48:04;98174.00;;;27.39;33.85
5609;BME280;2826;51.354;9.588;2023-07-13T09:50:31;98157.50;;;27.52;33.31
5609;BME280;2826;51.354;9.588;2023-07-13T09:52:57;98157.84;;;27.49;34.13
5609;BME280;2826;51.354;9.588;2023-07-13T09:55:28;98165.81;;;27.49;34.00
5609;BME280;2826;51.354;9.588;2023-07-13T09:57:56;98172.63;;;27.51;34.72
5609;BME280;2826;51.354;9.588;2023-07-13T10:00:25;98166.19;;;27.46;32.46
5609;BME280;2826;51.354;9.588;2023-07-13T10:03:00;98171.03;;;27.25;33.00
5609;BME280;2826;51.354;9.588;2023-07-13T10:05:37;98178.53;;;26.97;34.28
5609;BME280;2826;51.354;9.588;2023-07-13T10:08:04;98176.50;;;26.57;35.03
5609;BME280;2826;51.354;9.588;2023-07-13T10:10:32;98176.63;;;26.31;36.33
5609;BME280;2826;51.354;9.588;2023-07-13T10:13:01;98182.28;;;26.01;35.53
5609;BME280;2826;51.354;9.588;2023-07-13T10:15:30;98186.53;;;25.86;35.41
5609;BME280;2826;51.354;9.588;2023-07-13T10:17:57;98183.44;;;25.64;36.29
5609;BME280;2826;51.354;9.588;2023-07-13T10:20:26;98187.53;;;25.31;36.73
5609;BME280;2826;51.354;9.588;2023-07-13T10:22:56;98183.59;;;25.17;37.24
5609;BME280;2826;51.354;9.588;2023-07-13T10:25:26;98188.09;;;24.99;37.52
5609;BME280;2826;51.354;9.588;2023-07-13T10:27:56;98187.19;;;25.08;37.44
5609;BME280;2826;51.354;9.588;2023-07-13T10:30:27;98177.78;;;25.14;37.19
5609;BME280;2826;51.354;9.588;2023-07-13T10:32:58;98189.53;;;25.11;37.36
5609;BME280;2826;51.354;9.588;2023-07-13T10:35:28;98182.72;;;25.09;37.36
5609;BME280;2826;51.354;9.588;2023-07-13T10:37:58;98193.28;;;25.27;37.64
5609;BME280;2826;51.354;9.588;2023-07-13T10:40:34;98194.06;;;25.19;36.84
5609;BME280;2826;51.354;9.588;2023-07-13T10:43:08;98198.88;;;25.15;37.47
5609;BME280;2826;51.354;9.588;2023-07-13T10:45:39;98195.28;;;25.25;37.04
5609;BME280;2826;51.354;9.588;2023-07-13T10:48:09;98178.63;;;25.41;36.27
5609;BME280;2826;51.354;9.588;2023-07-13T10:50:43;98192.16;;;25.82;35.82
5609;BME280;2826;51.354;9.588;2023-07-13T10:53:19;98196.34;;;25.93;35.14
5609;BME280;2826;51.354;9.588;2023-07-13T10:55:57;98185.53;;;25.87;35.59
5609;BME280;2826;51.354;9.588;2023-07-13T10:58:29;98194.31;;;25.79;36.71
5609;BME280;2826;51.354;9.588;2023-07-13T11:01:08;98202.47;;;25.86;35.88
5609;BME280;2826;51.354;9.588;2023-07-13T11:03:38;98197.66;;;25.89;35.13
5609;BME280;2826;51.354;9.588;2023-07-13T11:06:16;98199.53;;;25.97;36.26
5609;BME280;2826;51.354;9.588;2023-07-13T11:08:53;98183.13;;;26.02;35.50
5609;BME280;2826;51.354;9.588;2023-07-13T11:11:41;98190.22;;;26.28;36.19
5609;BME280;2826;51.354;9.588;2023-07-13T11:14:26;98198.59;;;26.66;35.83
5609;BME280;2826;51.354;9.588;2023-07-13T11:16:53;98186.16;;;26.83;33.91
5609;BME280;2826;51.354;9.588;2023-07-13T11:19:40;98189.69;;;27.00;33.71
5609;BME280;2826;51.354;9.588;2023-07-13T11:22:15;98185.84;;;27.03;33.79
5609;BME280;2826;51.354;9.588;2023-07-13T11:24:51;98157.88;;;26.91;34.36
5609;BME280;2826;51.354;9.588;2023-07-13T11:27:24;98184.31;;;26.84;34.06
5609;BME280;2826;51.354;9.588;2023-07-13T11:30:07;98185.13;;;26.51;33.79
5609;BME280;2826;51.354;9.588;2023-07-13T11:32:34;98180.75;;;26.42;33.85
5609;BME280;2826;51.354;9.588;2023-07-13T11:35:02;98192.91;;;26.36;33.79
5609;BME280;2826;51.354;9.588;2023-07-13T11:37:30;98191.41;;;26.33;34.54
5609;BME280;2826;51.354;9.588;2023-07-13T11:39:57;98188.59;;;26.43;34.85
5609;BME280;2826;51.354;9.588;2023-07-13T11:42:24;98179.94;;;26.41;34.74
5609;BME280;2826;51.354;9.588;2023-07-13T11:44:52;98189.06;;;26.30;35.24
5609;BME280;2826;51.354;9.588;2023-07-13T11:47:22;98186.94;;;26.42;34.96
5609;BME280;2826;51.354;9.588;2023-07-13T11:49:54;98185.63;;;26.55;34.62
5609;BME280;2826;51.354;9.588;2023-07-13T11:52:23;98182.22;;;26.96;34.16
5609;BME280;2826;51.354;9.588;2023-07-13T11:54:55;98180.28;;;27.55;33.72
5609;BME280;2826;51.354;9.588;2023-07-13T11:57:26;98177.28;;;27.74;31.63
5609;BME280;2826;51.354;9.588;2023-07-13T11:59:54;98169.81;;;27.53;30.89
5609;BME280;2826;51.354;9.588;2023-07-13T12:02:28;98179.50;;;27.37;31.85
5609;BME280;2826;51.354;9.588;2023-07-13T12:04:56;98178.19;;;27.08;32.41
5609;BME280;2826;51.354;9.588;2023-07-13T12:07:23;98179.34;;;26.89;32.83
5609;BME280;2826;51.354;9.588;2023-07-13T12:09:49;98187.63;;;26.69;33.44
5609;BME280;2826;51.354;9.588;2023-07-13T12:12:21;98166.84;;;26.56;34.41
5609;BME280;2826;51.354;9.588;2023-07-13T12:14:51;98180.16;;;26.65;33.51
5609;BME280;2826;51.354;9.588;2023-07-13T12:17:19;98143.41;;;26.60;34.05
5609;BME280;2826;51.354;9.588;2023-07-13T12:19:47;98194.31;;;27.07;32.31
5609;BME280;2826;51.354;9.588;2023-07-13T12:22:16;98191.19;;;27.11;31.96
5609;BME280;2826;51.354;9.588;2023-07-13T12:24:44;98185.53;;;27.23;32.94
5609;BME280;2826;51.354;9.588;2023-07-13T12:27:20;98187.03;;;27.09;32.62
5609;BME280;2826;51.354;9.588;2023-07-13T12:29:50;98195.13;;;26.91;33.28
5609;BME280;2826;51.354;9.588;2023-07-13T12:32:19;98188.66;;;26.77;32.61
5609;BME280;2826;51.354;9.588;2023-07-13T12:34:53;98190.94;;;26.46;32.64
5609;BME280;2826;51.354;9.588;2023-07-13T12:37:22;98190.13;;;26.63;34.16
5609;BME280;2826;51.354;9.588;2023-07-13T12:39:50;98189.69;;;27.17;33.97
5609;BME280;2826;51.354;9.588;2023-07-13T12:42:22;98197.66;;;27.17;34.02
5609;BME280;2826;51.354;9.588;2023-07-13T12:44:53;98196.16;;;26.98;34.76
5609;BME280;2826;51.354;9.588;2023-07-13T12:47:21;98208.72;;;26.63;34.94
5609;BME280;2826;51.354;9.588;2023-07-13T12:49:50;98219.88;;;26.23;34.99
5609;BME280;2826;51.354;9.588;2023-07-13T12:52:20;98219.06;;;25.79;35.93
5609;BME280;2826;51.354;9.588;2023-07-13T12:54:54;98225.81;;;25.74;36.46
5609;BME280;2826;51.354;9.588;2023-07-13T12:57:25;98217.59;;;25.59;36.40
5609;BME280;2826;51.354;9.588;2023-07-13T12:59:52;98228.13;;;25.68;36.06
5609;BME280;2826;51.354;9.588;2023-07-13T13:02:28;98219.88;;;25.80;36.14
5609;BME280;2826;51.354;9.588;2023-07-13T13:04:56;98213.19;;;26.02;36.31
5609;BME280;2826;51.354;9.588;2023-07-13T13:07:24;98206.66;;;26.31;35.69
5609;BME280;2826;51.354;9.588;2023-07-13T13:09:51;98208.28;;;26.76;34.67
5609;BME280;2826;51.354;9.588;2023-07-13T13:12:20;98222.72;;;26.90;34.68
5609;BME280;2826;51.354;9.588;2023-07-13T13:14:48;98214.22;;;26.69;35.79
5609;BME280;2826;51.354;9.588;2023-07-13T13:17:18;98219.16;;;26.47;35.86
5609;BME280;2826;51.354;9.588;2023-07-13T13:19:46;98219.94;;;26.31;35.32
5609;BME280;2826;51.354;9.588;2023-07-13T13:22:13;98211.00;;;26.41;35.46
5609;BME280;2826;51.354;9.588;2023-07-13T13:24:40;98213.88;;;26.56;36.20
5609;BME280;2826;51.354;9.588;2023-07-13T13:27:14;98228.53;;;26.68;34.99
5609;BME280;2826;51.354;9.588;2023-07-13T13:29:43;98226.69;;;26.60;34.80
5609;BME280;2826;51.354;9.588;2023-07-13T13:32:12;98222.22;;;26.69;34.19